Time;durP1;ratioP1;P1;durP2;ratioP2;P2;SDS_P1;SDS_P2;PMS_P1;PMS_P2;Temp;Humidity;BMP_temperature;BMP_pressure;BME280_temperature;BME280_humidity;BME280_pressure;Samples;Min_cycle;Max_cycle;Signal;HPM_P1;HPM_P2
2023/07/24 00:00:35;;;;;;;1.80;1.20;;;19.60;99.90;;;;;;5014838;28;20190;-93
2023/07/24 00:03:02;;;;;;;1.55;1.00;;;19.60;99.90;;;;;;5015511;28;20179;-90
2023/07/24 00:05:34;;;;;;;1.80;1.05;;;19.60;99.90;;;;;;5020661;28;20178;-90
2023/07/24 00:08:00;;;;;;;1.20;1.00;;;19.40;99.90;;;;;;5034608;28;20277;-89
2023/07/24 00:10:25;;;;;;;2.03;1.10;;;19.40;99.90;;;;;;5035163;28;20588;-90
2023/07/24 00:12:51;;;;;;;0.98;0.88;;;19.50;99.90;;;;;;5034565;28;20221;-89
2023/07/24 00:15:17;;;;;;;1.30;0.90;;;19.40;99.90;;;;;;5034081;28;20175;-88
2023/07/24 00:17:43;;;;;;;1.63;1.00;;;19.40;99.90;;;;;;5033492;28;20515;-89
2023/07/24 00:20:09;;;;;;;1.95;1.13;;;19.40;99.90;;;;;;5033417;28;20188;-91
2023/07/24 00:22:36;;;;;;;1.48;1.05;;;19.40;99.90;;;;;;5033025;28;20186;-92
2023/07/24 00:25:02;;;;;;;1.80;1.30;;;19.30;99.90;;;;;;5035030;28;20213;-92
2023/07/24 00:27:28;;;;;;;1.30;1.10;;;19.30;99.90;;;;;;5034278;28;20179;-90
2023/07/24 00:29:53;;;;;;;3.63;1.10;;;19.30;99.90;;;;;;5464216;22;20239;-92
2023/07/24 00:32:19;;;;;;;1.10;0.88;;;19.30;99.90;;;;;;4975423;28;20272;-91
2023/07/24 00:34:44;;;;;;;1.40;1.05;;;19.20;99.90;;;;;;4975581;28;20228;-91
2023/07/24 00:37:13;;;;;;;1.80;1.17;;;19.20;99.90;;;;;;4974746;28;20192;-90
2023/07/24 00:39:38;;;;;;;4.40;1.05;;;19.30;99.90;;;;;;4974387;28;20211;-90
2023/07/24 00:42:15;;;;;;;1.33;1.20;;;19.20;99.90;;;;;;4975206;28;20216;-90
2023/07/24 00:44:41;;;;;;;1.10;1.00;;;19.20;99.90;;;;;;4975024;28;20176;-90
2023/07/24 00:47:08;;;;;;;2.95;1.17;;;19.20;99.90;;;;;;4974962;28;20592;-89
2023/07/24 00:49:34;;;;;;;1.73;1.10;;;19.20;99.90;;;;;;4978529;28;20522;-91
2023/07/24 00:52:01;;;;;;;4.20;1.20;;;19.20;99.90;;;;;;4978668;28;20236;-90
2023/07/24 00:54:30;;;;;;;1.90;0.98;;;19.20;99.90;;;;;;4978635;28;20176;-89
2023/07/24 00:56:56;;;;;;;1.30;1.20;;;19.20;99.90;;;;;;4978997;28;20181;-90
2023/07/24 00:59:22;;;;;;;2.05;1.27;;;19.20;99.90;;;;;;4978082;28;20227;-90
2023/07/24 01:01:53;;;;;;;1.90;1.23;;;19.20;99.90;;;;;;4979036;28;20623;-90
2023/07/24 01:04:19;;;;;;;1.27;1.00;;;19.20;99.90;;;;;;4978737;28;20184;-89
2023/07/24 01:06:45;;;;;;;1.85;1.10;;;19.20;99.90;;;;;;4978775;28;20518;-91
2023/07/24 01:09:11;;;;;;;3.20;1.00;;;19.20;99.90;;;;;;4978348;28;20514;-90
2023/07/24 01:12:17;;;;;;;4.38;1.25;;;19.10;99.90;;;;;;4978059;28;20224;-91
2023/07/24 01:14:49;;;;;;;1.20;1.02;;;19.10;99.90;;;;;;4972276;28;20282;-91
2023/07/24 01:17:20;;;;;;;3.85;1.38;;;19.00;99.90;;;;;;4978284;28;20180;-90
2023/07/24 01:19:51;;;;;;;3.10;1.40;;;19.00;99.90;;;;;;4978370;28;20176;-91
2023/07/24 01:22:46;;;;;;;1.35;1.25;;;19.00;99.90;;;;;;4978778;28;20177;-93
2023/07/24 01:25:37;;;;;;;1.63;1.17;;;19.00;99.90;;;;;;4978348;28;20187;-90
2023/07/24 01:28:08;;;;;;;3.30;1.48;;;18.90;99.90;;;;;;4978333;28;20561;-95
2023/07/24 01:30:44;;;;;;;2.08;1.10;;;18.90;99.90;;;;;;4978291;28;20738;-95
2023/07/24 01:33:10;;;;;;;1.50;1.15;;;18.90;99.90;;;;;;4978090;28;20243;-91
2023/07/24 01:35:38;;;;;;;2.15;1.30;;;18.80;99.90;;;;;;4977958;28;20215;-91
2023/07/24 01:38:04;;;;;;;3.33;1.05;;;18.90;99.90;;;;;;4978222;28;20641;-94
2023/07/24 01:40:44;;;;;;;1.90;1.10;;;18.80;99.90;;;;;;4977885;28;20276;-91
2023/07/24 01:43:10;;;;;;;2.55;1.20;;;18.80;99.90;;;;;;4978198;28;20268;-91
2023/07/24 01:45:36;;;;;;;1.75;1.13;;;18.80;99.90;;;;;;4978154;28;20203;-92
2023/07/24 01:48:04;;;;;;;1.67;1.30;;;18.80;99.90;;;;;;4978200;28;20181;-96
2023/07/24 01:50:29;;;;;;;3.15;1.20;;;18.70;99.90;;;;;;4977963;28;20188;-92
2023/07/24 01:52:56;;;;;;;2.80;1.15;;;18.80;99.90;;;;;;4976842;28;20208;-91
2023/07/24 01:55:22;;;;;;;3.78;1.20;;;18.80;99.90;;;;;;4977539;28;20187;-92
2023/07/24 01:57:47;;;;;;;1.73;1.30;;;18.80;99.90;;;;;;4977697;28;20279;-92
2023/07/24 02:00:13;;;;;;;1.40;1.00;;;18.80;99.90;;;;;;4977626;28;20180;-91
2023/07/24 02:02:40;;;;;;;2.20;1.00;;;18.80;99.90;;;;;;4977478;28;20687;-90
2023/07/24 02:05:06;;;;;;;1.55;1.10;;;18.80;99.90;;;;;;4977457;28;20172;-89
2023/07/24 02:07:32;;;;;;;1.02;0.93;;;18.80;99.90;;;;;;4977844;28;20655;-90
2023/07/24 02:09:57;;;;;;;4.50;1.13;;;18.80;99.90;;;;;;4978428;28;20276;-91
2023/07/24 02:12:26;;;;;;;2.30;1.25;;;18.90;99.90;;;;;;4977572;28;20656;-90
2023/07/24 02:14:53;;;;;;;1.20;1.00;;;18.90;99.90;;;;;;4977690;28;20275;-92
2023/07/24 02:17:19;;;;;;;1.33;1.00;;;18.90;99.90;;;;;;4977678;28;20187;-93
2023/07/24 02:19:45;;;;;;;1.20;1.10;;;19.00;99.90;;;;;;4977597;28;20177;-92
2023/07/24 02:22:14;;;;;;;2.17;1.00;;;18.90;99.90;;;;;;4977510;28;20689;-91
2023/07/24 02:24:40;;;;;;;2.20;1.30;;;18.90;99.90;;;;;;4977857;28;20173;-89
2023/07/24 02:27:07;;;;;;;1.30;1.00;;;18.90;99.90;;;;;;4977848;28;20177;-91
2023/07/24 02:29:33;;;;;;;2.97;1.00;;;19.00;99.90;;;;;;4977096;28;20233;-93
2023/07/24 02:32:15;;;;;;;1.90;1.15;;;19.00;99.90;;;;;;4977647;28;20200;-92
2023/07/24 02:34:40;;;;;;;1.75;1.20;;;18.90;99.90;;;;;;4977416;28;20250;-91
2023/07/24 02:37:06;;;;;;;1.30;1.17;;;19.00;99.90;;;;;;4977352;28;20603;-92
2023/07/24 02:39:32;;;;;;;2.03;1.23;;;19.00;99.90;;;;;;4977273;28;20678;-90
2023/07/24 02:41:58;;;;;;;1.80;1.20;;;19.00;99.90;;;;;;4977262;28;20559;-94
2023/07/24 02:44:24;;;;;;;1.50;1.40;;;19.00;99.90;;;;;;4977043;28;20267;-90
2023/07/24 02:46:50;;;;;;;1.23;1.10;;;19.00;99.90;;;;;;4978170;28;20283;-94
2023/07/24 02:49:15;;;;;;;1.55;1.27;;;19.00;99.90;;;;;;4978345;28;20173;-89
2023/07/24 02:51:44;;;;;;;1.75;1.20;;;19.00;99.90;;;;;;4977452;28;20204;-94
2023/07/24 02:54:10;;;;;;;1.20;1.02;;;19.00;99.90;;;;;;4976734;28;20173;-90
2023/07/24 02:56:35;;;;;;;1.60;1.00;;;19.00;99.90;;;;;;4976728;28;20247;-91
2023/07/24 02:59:01;;;;;;;4.13;1.35;;;19.10;99.90;;;;;;4977184;28;20205;-91
2023/07/24 03:01:26;;;;;;;1.52;1.10;;;19.00;99.90;;;;;;4977042;28;20185;-90
2023/07/24 03:03:52;;;;;;;3.28;1.27;;;19.00;99.90;;;;;;4976734;28;20180;-91
2023/07/24 03:06:18;;;;;;;2.78;1.42;;;19.00;99.90;;;;;;4977692;28;20216;-90
2023/07/24 03:08:43;;;;;;;2.20;1.30;;;19.00;99.90;;;;;;4976147;28;20607;-93
2023/07/24 03:11:09;;;;;;;1.52;1.05;;;19.00;99.90;;;;;;4975312;28;20227;-92
2023/07/24 03:13:40;;;;;;;3.13;1.10;;;19.00;99.90;;;;;;4976461;28;20600;-93
2023/07/24 03:16:06;;;;;;;1.33;1.10;;;19.00;99.90;;;;;;4976395;28;20230;-93
2023/07/24 03:18:32;;;;;;;1.52;1.15;;;19.00;99.90;;;;;;4977147;28;20256;-93
2023/07/24 03:21:01;;;;;;;1.58;1.20;;;19.00;99.90;;;;;;4977263;28;20231;-92
2023/07/24 03:23:27;;;;;;;2.10;1.40;;;19.00;99.90;;;;;;4975684;28;20224;-90
2023/07/24 03:25:52;;;;;;;2.72;1.20;;;19.00;99.90;;;;;;4976115;28;20176;-90
2023/07/24 03:28:18;;;;;;;1.30;1.20;;;19.00;99.90;;;;;;4976053;28;20520;-90
2023/07/24 03:30:44;;;;;;;1.33;1.20;;;19.00;99.90;;;;;;4975911;28;20286;-92
2023/07/24 03:33:12;;;;;;;2.13;1.38;;;19.00;99.90;;;;;;4977000;28;20223;-93
2023/07/24 03:35:39;;;;;;;2.67;1.40;;;19.00;99.90;;;;;;4976016;28;20188;-90
2023/07/24 03:38:04;;;;;;;1.27;1.00;;;19.00;99.90;;;;;;4975579;28;20312;-93
2023/07/24 03:40:30;;;;;;;1.58;1.00;;;18.90;99.90;;;;;;4975870;28;20211;-90
2023/07/24 03:42:56;;;;;;;2.28;1.40;;;19.00;99.90;;;;;;4975813;28;20200;-89
2023/07/24 03:45:22;;;;;;;2.08;1.30;;;19.00;99.90;;;;;;4975841;28;20172;-93
2023/07/24 03:47:47;;;;;;;2.00;1.30;;;19.00;99.90;;;;;;4975727;28;20184;-92
2023/07/24 03:50:13;;;;;;;1.52;1.23;;;19.00;99.90;;;;;;4975638;28;20185;-92
2023/07/24 03:52:54;;;;;;;2.10;1.10;;;19.00;99.90;;;;;;4975149;28;20278;-92
2023/07/24 03:55:20;;;;;;;2.03;1.20;;;18.90;99.90;;;;;;4975534;28;20227;-92
2023/07/24 03:57:45;;;;;;;1.30;1.20;;;18.90;99.90;;;;;;4975426;28;20188;-90
2023/07/24 04:00:11;;;;;;;1.20;1.05;;;18.90;99.90;;;;;;4975591;28;20261;-91
2023/07/24 04:02:43;;;;;;;1.90;1.20;;;18.90;99.90;;;;;;4975367;28;20623;-92
2023/07/24 04:05:09;;;;;;;1.88;1.10;;;18.90;99.90;;;;;;4975589;28;20172;-91
2023/07/24 04:07:36;;;;;;;2.85;1.25;;;19.00;99.90;;;;;;4975481;28;20626;-92
2023/07/24 04:10:02;;;;;;;1.55;1.05;;;18.90;99.90;;;;;;4991418;28;20620;-90
2023/07/24 04:12:38;;;;;;;1.52;1.40;;;18.90;99.90;;;;;;4975189;28;20240;-92
2023/07/24 04:15:04;;;;;;;2.03;1.13;;;18.90;99.90;;;;;;4975226;28;20176;-92
2023/07/24 04:17:30;;;;;;;1.10;1.00;;;18.80;99.90;;;;;;4975191;28;20176;-92
2023/07/24 04:19:56;;;;;;;1.30;1.20;;;18.90;99.90;;;;;;4975386;28;20180;-90
2023/07/24 04:22:21;;;;;;;1.75;1.10;;;18.90;99.90;;;;;;4975228;28;20215;-92
2023/07/24 04:24:47;;;;;;;1.20;1.10;;;18.90;99.90;;;;;;4978474;28;20177;-91
2023/07/24 04:27:13;;;;;;;1.40;1.10;;;18.90;99.90;;;;;;4979605;28;20176;-92
2023/07/24 04:29:38;;;;;;;1.30;1.10;;;19.00;99.90;;;;;;4979177;28;20620;-91
2023/07/24 04:32:04;;;;;;;2.78;1.10;;;19.00;99.90;;;;;;4980658;28;20215;-93
2023/07/24 04:34:30;;;;;;;1.38;1.27;;;19.10;99.90;;;;;;4979218;28;20172;-93
2023/07/24 04:36:56;;;;;;;1.40;1.08;;;19.10;99.90;;;;;;4979452;28;20230;-89
2023/07/24 04:39:21;;;;;;;2.08;1.40;;;19.10;99.90;;;;;;4981804;28;20231;-92
2023/07/24 04:41:48;;;;;;;1.63;1.38;;;19.10;99.90;;;;;;4998669;28;20203;-91
2023/07/24 04:44:31;;;;;;;1.70;1.15;;;19.10;99.90;;;;;;4998531;28;20202;-91
2023/07/24 04:46:58;;;;;;;1.65;1.48;;;19.10;99.90;;;;;;4998733;28;20180;-90
2023/07/24 04:49:24;;;;;;;1.25;1.15;;;19.10;99.90;;;;;;4998726;28;20641;-90
2023/07/24 04:51:50;;;;;;;1.60;1.35;;;19.10;99.90;;;;;;4998272;28;20203;-92
2023/07/24 04:54:17;;;;;;;1.38;1.23;;;19.00;99.90;;;;;;4998519;28;20215;-92
2023/07/24 04:56:43;;;;;;;1.45;1.30;;;19.00;99.90;;;;;;4998683;28;20505;-92
2023/07/24 04:59:09;;;;;;;1.30;1.20;;;19.00;99.90;;;;;;4998620;28;20204;-93
2023/07/24 05:01:34;;;;;;;1.90;1.30;;;18.90;99.90;;;;;;4998638;28;20180;-91
2023/07/24 05:04:06;;;;;;;2.95;1.42;;;19.00;99.90;;;;;;4998075;28;20176;-92
2023/07/24 05:06:32;;;;;;;2.25;1.25;;;19.00;99.90;;;;;;4998832;28;20511;-90
2023/07/24 05:08:57;;;;;;;1.80;1.20;;;19.10;99.90;;;;;;4997648;28;20175;-93
2023/07/24 05:11:23;;;;;;;1.85;1.48;;;19.10;99.90;;;;;;4996607;28;20230;-95
2023/07/24 05:13:49;;;;;;;3.10;1.48;;;19.20;99.90;;;;;;4998144;28;20901;-94
2023/07/24 05:16:14;;;;;;;2.08;1.50;;;19.20;99.90;;;;;;4997886;28;20513;-91
2023/07/24 05:18:40;;;;;;;2.63;1.20;;;19.20;99.90;;;;;;4997337;28;20188;-90
2023/07/24 05:21:07;;;;;;;2.58;1.30;;;19.30;99.90;;;;;;4999872;28;20180;-91
2023/07/24 05:23:34;;;;;;;1.80;1.50;;;19.40;99.90;;;;;;4998633;28;20184;-95
2023/07/24 05:26:02;;;;;;;2.03;1.60;;;19.40;99.90;;;;;;4998119;28;20196;-90
2023/07/24 05:28:28;;;;;;;2.38;1.60;;;19.40;99.90;;;;;;4997768;28;20179;-94
2023/07/24 05:30:54;;;;;;;2.08;1.60;;;19.50;99.90;;;;;;4997590;28;20232;-93
2023/07/24 05:33:34;;;;;;;3.08;1.98;;;19.50;99.90;;;;;;4997061;28;20254;-91
2023/07/24 05:36:01;;;;;;;3.08;2.00;;;19.60;99.90;;;;;;4991121;28;20176;-91
2023/07/24 05:38:26;;;;;;;3.42;1.75;;;19.70;99.90;;;;;;4977733;28;20188;-92
2023/07/24 05:41:00;;;;;;;4.15;2.05;;;19.80;99.90;;;;;;4977325;28;20180;-94
2023/07/24 05:43:38;;;;;;;5.35;2.30;;;19.80;99.90;;;;;;4977800;28;20247;-91
2023/07/24 05:46:04;;;;;;;5.82;2.30;;;19.90;99.90;;;;;;4978374;28;20184;-90
2023/07/24 05:48:30;;;;;;;5.00;2.55;;;20.00;99.90;;;;;;4978464;28;20184;-92
2023/07/24 05:50:55;;;;;;;2.72;1.88;;;20.00;99.90;;;;;;4978272;28;20265;-91
2023/07/24 05:53:21;;;;;;;4.85;2.20;;;20.00;99.90;;;;;;4977354;28;20526;-91
2023/07/24 05:55:47;;;;;;;5.22;2.00;;;20.10;99.90;;;;;;4977828;28;20232;-92
2023/07/24 05:58:13;;;;;;;3.97;2.28;;;20.10;99.90;;;;;;4977995;28;20180;-91
2023/07/24 06:00:38;;;;;;;3.88;2.13;;;20.10;99.90;;;;;;4977513;28;20514;-94
2023/07/24 06:03:04;;;;;;;3.45;1.95;;;20.20;99.90;;;;;;4977574;28;20608;-94
2023/07/24 06:05:43;;;;;;;2.47;1.75;;;20.20;99.90;;;;;;4977613;28;20263;-94
2023/07/24 06:08:10;;;;;;;4.57;2.10;;;20.40;99.90;;;;;;4977302;28;20314;-89
2023/07/24 06:10:36;;;;;;;1.73;1.55;;;20.40;99.90;;;;;;4977564;28;20239;-90
2023/07/24 06:13:02;;;;;;;3.05;1.83;;;20.50;99.90;;;;;;4977599;28;20549;-92
2023/07/24 06:15:32;;;;;;;3.38;1.73;;;20.50;99.90;;;;;;4977653;28;20180;-89
2023/07/24 06:17:58;;;;;;;2.45;1.63;;;20.60;99.90;;;;;;4977574;28;20173;-93
2023/07/24 06:20:23;;;;;;;2.95;1.77;;;20.70;99.90;;;;;;4978194;28;20179;-92
2023/07/24 06:22:49;;;;;;;2.90;1.70;;;20.80;99.90;;;;;;4977778;28;20203;-90
2023/07/24 06:25:16;;;;;;;5.28;1.95;;;20.80;99.90;;;;;;4977008;28;20177;-93
2023/07/24 06:27:41;;;;;;;3.97;2.00;;;20.80;99.90;;;;;;4978144;28;20183;-95
2023/07/24 06:30:07;;;;;;;3.47;1.92;;;20.80;99.90;;;;;;4981134;28;20307;-88
2023/07/24 06:32:33;;;;;;;2.95;2.03;;;20.70;99.90;;;;;;4996663;28;20211;-94
2023/07/24 06:35:00;;;;;;;3.13;2.25;;;20.70;99.90;;;;;;4994643;28;20180;-93
2023/07/24 06:37:25;;;;;;;2.65;2.10;;;20.60;99.90;;;;;;4978269;28;20176;-90
2023/07/24 06:39:51;;;;;;;2.40;2.00;;;20.40;99.90;;;;;;4980446;28;20276;-94
2023/07/24 06:42:17;;;;;;;2.80;1.80;;;20.20;99.90;;;;;;5009894;28;20633;-91
2023/07/24 06:44:49;;;;;;;3.35;1.80;;;20.20;99.90;;;;;;5017131;28;20302;-96
2023/07/24 06:47:15;;;;;;;3.00;1.80;;;20.00;99.90;;;;;;5017398;28;20251;-94
2023/07/24 06:49:41;;;;;;;4.15;1.67;;;19.90;99.90;;;;;;5001572;28;20300;-93
2023/07/24 06:52:07;;;;;;;2.70;1.73;;;19.90;99.90;;;;;;4996923;28;20251;-91
2023/07/24 06:54:32;;;;;;;2.40;1.80;;;20.00;99.90;;;;;;4991923;28;20183;-94
2023/07/24 06:56:58;;;;;;;2.67;1.90;;;20.20;99.90;;;;;;4992519;28;20177;-94
2023/07/24 06:59:24;;;;;;;4.75;1.80;;;20.30;99.90;;;;;;4993514;28;20180;-93
2023/07/24 07:01:49;;;;;;;2.10;1.90;;;20.40;99.90;;;;;;4994431;28;20180;-92
2023/07/24 07:04:16;;;;;;;2.10;1.88;;;20.40;99.90;;;;;;4992800;28;20181;-91
2023/07/24 07:06:42;;;;;;;3.28;1.60;;;20.40;99.90;;;;;;4976548;28;20181;-92
2023/07/24 07:09:07;;;;;;;3.85;2.00;;;20.40;99.90;;;;;;4976278;28;20183;-91
2023/07/24 07:11:33;;;;;;;2.28;1.65;;;20.50;99.90;;;;;;4975913;28;20287;-94
2023/07/24 07:13:59;;;;;;;3.42;1.77;;;20.70;99.90;;;;;;4976016;28;20546;-91
2023/07/24 07:16:25;;;;;;;2.45;1.90;;;20.90;99.90;;;;;;4975533;28;20180;-94
2023/07/24 07:18:51;;;;;;;3.03;1.85;;;21.00;99.90;;;;;;4981567;28;20180;-93
2023/07/24 07:21:17;;;;;;;2.40;2.05;;;21.10;99.90;;;;;;4976551;28;20488;-93
2023/07/24 07:23:43;;;;;;;2.55;1.92;;;21.20;99.90;;;;;;4976136;28;20184;-94
2023/07/24 07:26:09;;;;;;;4.90;2.35;;;21.20;99.90;;;;;;4975685;28;20193;-90
2023/07/24 07:28:34;;;;;;;3.58;2.00;;;21.20;99.90;;;;;;4976441;28;20231;-90
2023/07/24 07:31:00;;;;;;;4.55;2.50;;;21.20;99.90;;;;;;4975874;28;20227;-91
2023/07/24 07:33:26;;;;;;;4.97;2.42;;;21.20;99.90;;;;;;4976140;28;20216;-94
2023/07/24 07:35:53;;;;;;;3.35;2.20;;;21.20;99.90;;;;;;4976328;28;20200;-95
2023/07/24 07:38:22;;;;;;;2.92;2.10;;;21.20;99.90;;;;;;4976194;28;20180;-91
2023/07/24 07:40:48;;;;;;;3.65;2.42;;;21.20;99.90;;;;;;4975657;28;20177;-89
2023/07/24 07:43:13;;;;;;;3.85;2.17;;;21.20;99.90;;;;;;4975997;28;20184;-91
2023/07/24 07:45:40;;;;;;;3.35;1.85;;;21.30;99.90;;;;;;4991924;28;20964;-90
2023/07/24 07:48:06;;;;;;;2.80;2.13;;;21.30;99.90;;;;;;4982339;28;20211;-92
2023/07/24 07:50:32;;;;;;;4.78;2.28;;;21.40;99.90;;;;;;5014806;28;20186;-90
2023/07/24 07:52:57;;;;;;;2.95;2.05;;;21.60;99.90;;;;;;5014653;28;20214;-91
2023/07/24 07:55:23;;;;;;;3.30;2.10;;;21.90;99.90;;;;;;5014591;28;20286;-91
2023/07/24 07:57:49;;;;;;;2.78;2.20;;;22.20;99.90;;;;;;5015141;28;20191;-91
2023/07/24 08:00:15;;;;;;;3.78;2.08;;;22.30;99.90;;;;;;5015172;28;20172;-89
2023/07/24 08:02:41;;;;;;;5.70;2.15;;;22.40;99.90;;;;;;5014830;28;20233;-90
2023/07/24 08:05:08;;;;;;;4.68;2.15;;;22.40;99.90;;;;;;5016483;28;20175;-90
2023/07/24 08:07:34;;;;;;;4.72;2.40;;;22.30;99.90;;;;;;5015543;28;20269;-91
2023/07/24 08:09:59;;;;;;;3.42;2.20;;;22.30;99.90;;;;;;5014573;28;20207;-89
2023/07/24 08:12:25;;;;;;;3.55;2.45;;;22.30;99.90;;;;;;5014263;28;20214;-91
2023/07/24 08:14:51;;;;;;;3.15;2.15;;;22.60;99.90;;;;;;5015266;28;20182;-92
2023/07/24 08:17:19;;;;;;;8.68;2.97;;;22.80;99.90;;;;;;5015204;28;20179;-90
2023/07/24 08:19:45;;;;;;;6.85;2.28;;;22.90;99.90;;;;;;4998782;28;20187;-92
2023/07/24 08:22:11;;;;;;;5.90;2.63;;;23.10;99.90;;;;;;4995835;28;20205;-89
2023/07/24 08:24:37;;;;;;;4.03;2.53;;;23.30;99.90;;;;;;4996296;28;20570;-91
2023/07/24 08:27:05;;;;;;;8.68;2.33;;;23.30;99.90;;;;;;5011475;28;20207;-89
2023/07/24 08:29:30;;;;;;;3.13;2.15;;;23.30;99.90;;;;;;4997131;28;20319;-90
2023/07/24 08:31:58;;;;;;;5.80;2.67;;;23.30;99.90;;;;;;5011552;28;20670;-93
2023/07/24 08:34:23;;;;;;;3.53;2.22;;;23.30;99.90;;;;;;4995351;28;20234;-91
2023/07/24 08:36:49;;;;;;;3.78;2.50;;;23.30;99.90;;;;;;4995592;28;20184;-90
2023/07/24 08:39:15;;;;;;;3.15;2.28;;;23.40;99.90;;;;;;4995584;28;20186;-90
2023/07/24 08:41:40;;;;;;;3.22;2.33;;;23.30;99.90;;;;;;4995504;28;20184;-89
2023/07/24 08:44:09;;;;;;;4.60;2.33;;;23.20;99.90;;;;;;4995390;28;20263;-90
2023/07/24 08:46:45;;;;;;;5.00;2.40;;;23.20;99.90;;;;;;4995126;28;20176;-93
2023/07/24 08:49:13;;;;;;;3.97;2.33;;;23.30;99.90;;;;;;4994921;28;20197;-90
2023/07/24 08:51:43;;;;;;;7.13;2.80;;;23.30;99.90;;;;;;4994266;28;20208;-90
2023/07/24 08:54:10;;;;;;;3.45;2.50;;;23.30;99.90;;;;;;4994513;28;20541;-92
2023/07/24 08:56:41;;;;;;;4.00;2.38;;;23.20;99.90;;;;;;4994622;28;20682;-94
2023/07/24 08:59:07;;;;;;;4.00;2.40;;;23.20;99.90;;;;;;4995667;28;20172;-86
2023/07/24 09:01:33;;;;;;;4.25;2.45;;;23.00;99.90;;;;;;4994272;28;20623;-93
2023/07/24 09:03:59;;;;;;;4.00;2.65;;;22.90;99.90;;;;;;4994300;28;20207;-89
2023/07/24 09:06:27;;;;;;;4.50;2.75;;;22.70;99.90;;;;;;4993606;28;20190;-89
2023/07/24 09:08:54;;;;;;;4.18;2.53;;;22.60;99.90;;;;;;4994918;28;20176;-91
2023/07/24 09:11:19;;;;;;;5.47;3.03;;;22.50;99.90;;;;;;4998161;28;20246;-91
2023/07/24 09:13:45;;;;;;;7.07;3.35;;;22.30;99.90;;;;;;4997553;28;20627;-87
2023/07/24 09:16:26;;;;;;;8.73;2.88;;;21.90;99.90;;;;;;5014236;28;20184;-86
2023/07/24 09:18:53;;;;;;;5.38;2.75;;;21.40;99.90;;;;;;4997722;28;20275;-88
2023/07/24 09:21:29;;;;;;;5.22;2.83;;;21.00;99.90;;;;;;4997636;28;20223;-85
2023/07/24 09:23:55;;;;;;;4.78;2.88;;;20.70;99.90;;;;;;4997432;28;20180;-86
2023/07/24 09:26:23;;;;;;;8.68;2.85;;;20.40;99.90;;;;;;4997224;28;20172;-88
2023/07/24 09:28:55;;;;;;;4.68;2.65;;;20.30;99.90;;;;;;4997155;28;20180;-85
2023/07/24 09:31:20;;;;;;;5.68;2.45;;;20.10;99.90;;;;;;4996753;28;20184;-88
2023/07/24 09:33:46;;;;;;;5.28;2.13;;;20.00;99.90;;;;;;4997244;28;20195;-87
2023/07/24 09:36:12;;;;;;;3.08;2.10;;;20.00;99.90;;;;;;4997220;28;20199;-86
2023/07/24 09:38:39;;;;;;;3.72;2.20;;;20.00;99.90;;;;;;4997465;28;20274;-87
2023/07/24 09:41:06;;;;;;;3.17;1.85;;;20.00;99.90;;;;;;4997035;28;20175;-90
2023/07/24 09:43:35;;;;;;;4.65;2.20;;;20.10;99.90;;;;;;4997369;28;20744;-90
2023/07/24 09:46:01;;;;;;;3.15;2.13;;;20.20;99.90;;;;;;4997463;28;20184;-88
2023/07/24 09:48:27;;;;;;;3.47;2.50;;;20.30;99.90;;;;;;4997398;28;20522;-87
2023/07/24 09:50:55;;;;;;;3.55;2.50;;;20.50;99.90;;;;;;4996918;28;20263;-86
2023/07/24 09:53:51;;;;;;;4.05;2.45;;;20.70;99.90;;;;;;4996785;28;20559;-88
2023/07/24 09:56:17;;;;;;;2.47;2.15;;;20.90;99.90;;;;;;4998140;28;20243;-89
2023/07/24 09:58:54;;;;;;;9.88;2.92;;;21.20;99.90;;;;;;4997089;28;20678;-88
2023/07/24 10:01:20;;;;;;;8.30;2.70;;;21.50;99.90;;;;;;4996899;28;20184;-91
2023/07/24 10:03:48;;;;;;;10.63;2.78;;;21.70;99.90;;;;;;4997036;28;20187;-87
2023/07/24 10:06:15;;;;;;;3.33;2.33;;;21.70;99.90;;;;;;5004715;28;20241;-88
2023/07/24 10:08:42;;;;;;;5.32;3.00;;;21.80;99.90;;;;;;5016307;28;20210;-88
2023/07/24 10:11:12;;;;;;;3.10;2.50;;;21.80;99.90;;;;;;5015875;28;20598;-88
2023/07/24 10:13:39;;;;;;;3.00;2.50;;;21.70;99.90;;;;;;5016081;28;20195;-90
2023/07/24 10:16:06;;;;;;;4.15;2.78;;;21.80;99.90;;;;;;5016449;28;20176;-90
2023/07/24 10:18:34;;;;;;;6.15;2.60;;;22.10;99.90;;;;;;5016339;28;20185;-90
2023/07/24 10:21:10;;;;;;;3.80;2.60;;;22.30;99.90;;;;;;5015995;28;20167;-94
2023/07/24 10:23:40;;;;;;;3.67;2.80;;;22.40;99.90;;;;;;5016200;28;20171;-91
2023/07/24 10:26:06;;;;;;;2.85;2.55;;;22.20;99.90;;;;;;5016063;28;20258;-91
2023/07/24 10:28:48;;;;;;;5.53;2.75;;;22.00;99.90;;;;;;5016182;28;20183;-89
2023/07/24 10:31:23;;;;;;;4.07;2.50;;;21.80;99.90;;;;;;4976943;28;20243;-93
2023/07/24 10:33:50;;;;;;;3.53;2.75;;;21.80;99.90;;;;;;4976825;28;20211;-94
2023/07/24 10:36:22;;;;;;;5.53;2.75;;;21.70;99.90;;;;;;4968792;28;20213;-91
2023/07/24 10:38:54;;;;;;;3.22;2.70;;;21.80;99.90;;;;;;4958124;29;20220;-93
2023/07/24 10:41:20;;;;;;;3.42;2.70;;;21.80;99.90;;;;;;4957605;29;20169;-92
2023/07/24 10:43:48;;;;;;;3.28;2.70;;;21.70;99.90;;;;;;4957578;29;20182;-93
2023/07/24 10:46:15;;;;;;;3.35;2.72;;;21.70;99.90;;;;;;4957374;29;20177;-91
2023/07/24 10:48:48;;;;;;;5.03;2.90;;;21.80;99.90;;;;;;4957722;28;20188;-93
2023/07/24 10:51:14;;;;;;;3.53;2.50;;;21.90;99.90;;;;;;4973697;28;20185;-93
2023/07/24 10:53:49;;;;;;;3.70;2.75;;;22.10;99.90;;;;;;4957712;29;20193;-92
2023/07/24 10:56:16;;;;;;;3.45;2.83;;;22.50;99.90;;;;;;4956921;29;20203;-92
2023/07/24 10:58:55;;;;;;;5.03;3.05;;;22.90;99.90;;;;;;4957292;29;20240;-91
2023/07/24 11:01:23;;;;;;;3.05;2.45;;;23.20;99.90;;;;;;4957634;29;20173;-93
2023/07/24 11:03:50;;;;;;;2.92;2.72;;;23.40;99.90;;;;;;4973541;28;20232;-94
2023/07/24 11:06:17;;;;;;;3.60;2.70;;;23.60;99.90;;;;;;4958369;28;20581;-92
2023/07/24 11:09:15;;;;;;;3.05;2.30;;;23.80;99.90;;;;;;4957073;29;20180;-92
2023/07/24 11:11:41;;;;;;;2.63;2.25;;;23.70;99.90;;;;;;4956710;29;20204;-91
2023/07/24 11:14:14;;;;;;;6.93;2.88;;;23.40;99.90;;;;;;4957988;29;20182;-90
2023/07/24 11:16:49;;;;;;;3.85;2.58;;;23.50;99.90;;;;;;4956831;29;20170;-91
2023/07/24 11:19:25;;;;;;;3.08;2.30;;;23.60;99.90;;;;;;4973404;28;20232;-93
2023/07/24 11:21:50;;;;;;;11.82;2.80;;;23.50;99.90;;;;;;4956369;29;20268;-91
2023/07/24 11:24:18;;;;;;;19.70;3.47;;;23.70;99.90;;;;;;4957887;29;20264;-91
2023/07/24 11:26:43;;;;;;;9.85;2.75;;;23.80;99.90;;;;;;4956381;29;20239;-91
2023/07/24 11:29:13;;;;;;;4.43;2.40;;;24.10;99.90;;;;;;4961415;28;20204;-93
2023/07/24 11:31:39;;;;;;;4.10;2.30;;;24.30;99.90;;;;;;4995282;28;20286;-91
2023/07/24 11:34:05;;;;;;;3.92;2.17;;;24.60;99.90;;;;;;4995201;28;20184;-91
2023/07/24 11:36:32;;;;;;;4.93;2.10;;;24.70;99.90;;;;;;4995062;28;20689;-91
2023/07/24 11:38:58;;;;;;;3.65;2.20;;;24.80;99.90;;;;;;4994995;28;20218;-91
2023/07/24 11:41:27;;;;;;;2.30;2.10;;;24.60;99.90;;;;;;4994984;28;20200;-91
2023/07/24 11:43:52;;;;;;;3.85;1.85;;;24.40;99.90;;;;;;5011347;28;20214;-91
2023/07/24 11:46:26;;;;;;;2.45;1.90;;;24.20;99.90;;;;;;4995229;28;20191;-92
2023/07/24 11:49:03;;;;;;;5.18;2.35;;;24.10;99.90;;;;;;5011652;28;20226;-91
2023/07/24 11:51:29;;;;;;;2.58;2.10;;;24.20;99.90;;;;;;4994926;28;20182;-92
2023/07/24 11:54:06;;;;;;;4.45;1.98;;;24.50;99.90;;;;;;4995170;28;20179;-92
2023/07/24 11:56:32;;;;;;;2.58;1.90;;;24.60;99.90;;;;;;4994724;28;20270;-89
2023/07/24 11:59:13;;;;;;;2.22;2.03;;;24.50;99.90;;;;;;4994994;28;20634;-90
2023/07/24 12:01:39;;;;;;;2.25;1.80;;;24.20;99.90;;;;;;4995449;28;20279;-91
2023/07/24 12:04:05;;;;;;;2.60;2.10;;;24.20;99.90;;;;;;4994544;28;20294;-90
2023/07/24 12:06:31;;;;;;;2.67;2.05;;;24.40;99.90;;;;;;4993806;28;20182;-90
2023/07/24 12:09:12;;;;;;;2.72;2.13;;;24.30;99.90;;;;;;4994619;28;20238;-90
2023/07/24 12:11:45;;;;;;;2.08;1.83;;;24.00;99.90;;;;;;4994068;28;20553;-90
2023/07/24 12:14:13;;;;;;;8.70;2.00;;;23.70;99.90;;;;;;4994797;28;20246;-90
2023/07/24 12:16:38;;;;;;;9.13;2.28;;;23.40;99.90;;;;;;4994749;28;20176;-91
2023/07/24 12:19:18;;;;;;;3.42;2.15;;;23.20;99.90;;;;;;4994524;28;20180;-91
2023/07/24 12:21:44;;;;;;;5.57;2.28;;;23.10;99.90;;;;;;4994666;28;20210;-91
2023/07/24 12:24:09;;;;;;;4.68;2.33;;;23.30;99.90;;;;;;4994245;28;20207;-90
2023/07/24 12:26:35;;;;;;;5.75;2.47;;;23.50;99.90;;;;;;4995550;28;20203;-91
2023/07/24 12:29:01;;;;;;;3.67;2.70;;;23.60;99.90;;;;;;4995439;28;20176;-93
2023/07/24 12:31:27;;;;;;;3.50;2.10;;;23.50;99.90;;;;;;5010288;28;20176;-92
2023/07/24 12:33:52;;;;;;;2.95;2.40;;;23.50;99.90;;;;;;4994231;28;20179;-90
2023/07/24 12:36:18;;;;;;;3.90;2.60;;;23.50;99.90;;;;;;4994311;28;20615;-90
2023/07/24 12:38:50;;;;;;;3.92;2.22;;;23.80;99.90;;;;;;5010930;28;20186;-90
2023/07/24 12:41:15;;;;;;;3.50;2.25;;;24.20;99.90;;;;;;4994260;28;20231;-91
2023/07/24 12:43:41;;;;;;;2.58;2.38;;;24.60;99.90;;;;;;4995079;28;20176;-91
2023/07/24 12:46:06;;;;;;;3.30;2.47;;;24.90;99.90;;;;;;4998499;28;20210;-90
2023/07/24 12:48:32;;;;;;;3.20;2.90;;;25.20;99.90;;;;;;4998501;28;20175;-91